sensor_id;sensor_type;location;lat;lon;timestamp;P1;durP1;ratioP1;P2;durP2;ratioP2
53521;SDS011;39398;48.382;9.802;2022-11-30T00:00:42;239.02;;;15.10;;
53521;SDS011;39398;48.382;9.802;2022-11-30T00:01:45;427.08;;;24.75;;
53521;SDS011;39398;48.382;9.802;2022-11-30T00:02:47;456.83;;;24.10;;
53521;SDS011;39398;48.382;9.802;2022-11-30T00:03:51;305.77;;;15.65;;
53521;SDS011;39398;48.382;9.802;2022-11-30T00:04:53;71.88;;;9.82;;
53521;SDS011;39398;48.382;9.802;2022-11-30T00:05:55;355.38;;;21.25;;
53521;SDS011;39398;48.382;9.802;2022-11-30T00:06:56;141.13;;;11.45;;
53521;SDS011;39398;48.382;9.802;2022-11-30T00:07:59;38.85;;;7.68;;
53521;SDS011;39398;48.382;9.802;2022-11-30T00:09:01;274.80;;;16.85;;
53521;SDS011;39398;48.382;9.802;2022-11-30T00:10:03;389.30;;;21.08;;
53521;SDS011;39398;48.382;9.802;2022-11-30T00:11:06;321.50;;;18.83;;
53521;SDS011;39398;48.382;9.802;2022-11-30T00:12:09;256.83;;;18.65;;
53521;SDS011;39398;48.382;9.802;2022-11-30T00:13:10;47.92;;;9.77;;
53521;SDS011;39398;48.382;9.802;2022-11-30T00:14:12;78.93;;;10.65;;
53521;SDS011;39398;48.382;9.802;2022-11-30T00:15:13;78.72;;;11.13;;
53521;SDS011;39398;48.382;9.802;2022-11-30T00:16:16;64.30;;;12.32;;
53521;SDS011;39398;48.382;9.802;2022-11-30T00:17:19;93.43;;;13.65;;
53521;SDS011;39398;48.382;9.802;2022-11-30T00:18:20;170.18;;;14.75;;
53521;SDS011;39398;48.382;9.802;2022-11-30T00:19:22;182.02;;;14.20;;
53521;SDS011;39398;48.382;9.802;2022-11-30T00:20:24;335.70;;;20.08;;
53521;SDS011;39398;48.382;9.802;2022-11-30T00:21:26;488.10;;;28.85;;
53521;SDS011;39398;48.382;9.802;2022-11-30T00:22:28;549.25;;;34.28;;
53521;SDS011;39398;48.382;9.802;2022-11-30T00:23:32;378.27;;;22.65;;
53521;SDS011;39398;48.382;9.802;2022-11-30T00:24:34;286.23;;;17.48;;
53521;SDS011;39398;48.382;9.802;2022-11-30T00:25:36;354.70;;;21.75;;
53521;SDS011;39398;48.382;9.802;2022-11-30T00:26:37;270.63;;;16.73;;
53521;SDS011;39398;48.382;9.802;2022-11-30T00:27:39;89.93;;;11.20;;
53521;SDS011;39398;48.382;9.802;2022-11-30T00:28:41;413.90;;;24.00;;
53521;SDS011;39398;48.382;9.802;2022-11-30T00:29:43;361.02;;;21.17;;
53521;SDS011;39398;48.382;9.802;2022-11-30T00:30:44;531.25;;;29.77;;
53521;SDS011;39398;48.382;9.802;2022-11-30T00:31:46;472.40;;;26.85;;
53521;SDS011;39398;48.382;9.802;2022-11-30T00:32:49;313.30;;;22.02;;
53521;SDS011;39398;48.382;9.802;2022-11-30T00:33:50;525.50;;;31.05;;
53521;SDS011;39398;48.382;9.802;2022-11-30T00:34:52;368.63;;;21.75;;
53521;SDS011;39398;48.382;9.802;2022-11-30T00:35:54;383.65;;;22.33;;
53521;SDS011;39398;48.382;9.802;2022-11-30T00:36:57;328.83;;;19.98;;
53521;SDS011;39398;48.382;9.802;2022-11-30T00:38:00;503.48;;;31.48;;
53521;SDS011;39398;48.382;9.802;2022-11-30T00:39:02;564.13;;;30.83;;
53521;SDS011;39398;48.382;9.802;2022-11-30T00:40:04;165.00;;;15.23;;
53521;SDS011;39398;48.382;9.802;2022-11-30T00:41:06;254.75;;;18.48;;
53521;SDS011;39398;48.382;9.802;2022-11-30T00:42:08;169.23;;;16.05;;
53521;SDS011;39398;48.382;9.802;2022-11-30T00:43:10;512.08;;;29.00;;
53521;SDS011;39398;48.382;9.802;2022-11-30T00:44:11;274.15;;;18.33;;
53521;SDS011;39398;48.382;9.802;2022-11-30T00:45:13;74.38;;;11.52;;
53521;SDS011;39398;48.382;9.802;2022-11-30T00:46:14;81.75;;;10.57;;
53521;SDS011;39398;48.382;9.802;2022-11-30T00:47:16;92.40;;;11.65;;
53521;SDS011;39398;48.382;9.802;2022-11-30T00:48:19;159.80;;;13.57;;
53521;SDS011;39398;48.382;9.802;2022-11-30T00:49:20;17.35;;;6.25;;
53521;SDS011;39398;48.382;9.802;2022-11-30T00:50:22;50.50;;;10.43;;
53521;SDS011;39398;48.382;9.802;2022-11-30T00:51:23;165.60;;;16.17;;
53521;SDS011;39398;48.382;9.802;2022-11-30T00:52:31;34.63;;;7.47;;
53521;SDS011;39398;48.382;9.802;2022-11-30T00:53:32;27.70;;;6.85;;
53521;SDS011;39398;48.382;9.802;2022-11-30T00:54:34;24.65;;;5.72;;
53521;SDS011;39398;48.382;9.802;2022-11-30T00:55:36;63.72;;;8.50;;
53521;SDS011;39398;48.382;9.802;2022-11-30T00:56:37;49.13;;;9.40;;
53521;SDS011;39398;48.382;9.802;2022-11-30T00:57:39;271.83;;;16.27;;
53521;SDS011;39398;48.382;9.802;2022-11-30T00:58:40;351.17;;;19.42;;
53521;SDS011;39398;48.382;9.802;2022-11-30T00:59:42;354.95;;;18.80;;
53521;SDS011;39398;48.382;9.802;2022-11-30T01:00:44;287.23;;;15.95;;
53521;SDS011;39398;48.382;9.802;2022-11-30T01:01:45;358.02;;;20.70;;
53521;SDS011;39398;48.382;9.802;2022-11-30T01:02:50;296.13;;;19.88;;
53521;SDS011;39398;48.382;9.802;2022-11-30T01:03:55;130.98;;;16.23;;
53521;SDS011;39398;48.382;9.802;2022-11-30T01:04:56;395.63;;;23.58;;
53521;SDS011;39398;48.382;9.802;2022-11-30T01:06:00;350.95;;;21.05;;
53521;SDS011;39398;48.382;9.802;2022-11-30T01:07:02;143.52;;;12.35;;
53521;SDS011;39398;48.382;9.802;2022-11-30T01:08:05;123.18;;;15.63;;
53521;SDS011;39398;48.382;9.802;2022-11-30T01:09:08;268.75;;;16.42;;
53521;SDS011;39398;48.382;9.802;2022-11-30T01:10:10;354.77;;;20.38;;
53521;SDS011;39398;48.382;9.802;2022-11-30T01:11:13;425.05;;;23.65;;
53521;SDS011;39398;48.382;9.802;2022-11-30T01:12:16;519.60;;;31.92;;
53521;SDS011;39398;48.382;9.802;2022-11-30T01:13:18;490.13;;;30.27;;
53521;SDS011;39398;48.382;9.802;2022-11-30T01:14:19;511.83;;;31.70;;
53521;SDS011;39398;48.382;9.802;2022-11-30T01:15:21;600.67;;;38.60;;
53521;SDS011;39398;48.382;9.802;2022-11-30T01:16:25;678.50;;;43.08;;
53521;SDS011;39398;48.382;9.802;2022-11-30T01:17:27;725.85;;;44.25;;
53521;SDS011;39398;48.382;9.802;2022-11-30T01:18:29;675.05;;;41.75;;
53521;SDS011;39398;48.382;9.802;2022-11-30T01:19:32;529.60;;;33.00;;
53521;SDS011;39398;48.382;9.802;2022-11-30T01:20:33;622.08;;;42.97;;
53521;SDS011;39398;48.382;9.802;2022-11-30T01:21:35;553.63;;;33.20;;
53521;SDS011;39398;48.382;9.802;2022-11-30T01:22:37;565.45;;;39.47;;
53521;SDS011;39398;48.382;9.802;2022-11-30T01:23:38;448.52;;;27.65;;
53521;SDS011;39398;48.382;9.802;2022-11-30T01:24:41;461.48;;;26.25;;
53521;SDS011;39398;48.382;9.802;2022-11-30T01:25:44;457.48;;;26.40;;
53521;SDS011;39398;48.382;9.802;2022-11-30T01:26:53;534.97;;;32.22;;
53521;SDS011;39398;48.382;9.802;2022-11-30T01:27:55;547.72;;;32.90;;
53521;SDS011;39398;48.382;9.802;2022-11-30T01:28:56;469.13;;;29.90;;
53521;SDS011;39398;48.382;9.802;2022-11-30T01:29:58;491.58;;;29.58;;
53521;SDS011;39398;48.382;9.802;2022-11-30T01:31:00;537.70;;;31.55;;
53521;SDS011;39398;48.382;9.802;2022-11-30T01:32:04;538.15;;;31.40;;
53521;SDS011;39398;48.382;9.802;2022-11-30T01:33:06;581.65;;;35.80;;
53521;SDS011;39398;48.382;9.802;2022-11-30T01:34:07;578.95;;;34.03;;
53521;SDS011;39398;48.382;9.802;2022-11-30T01:35:10;635.00;;;36.65;;
53521;SDS011;39398;48.382;9.802;2022-11-30T01:36:12;605.30;;;38.22;;
53521;SDS011;39398;48.382;9.802;2022-11-30T01:37:15;648.67;;;39.35;;
53521;SDS011;39398;48.382;9.802;2022-11-30T01:38:16;516.33;;;30.77;;
53521;SDS011;39398;48.382;9.802;2022-11-30T01:39:18;512.05;;;30.50;;
53521;SDS011;39398;48.382;9.802;2022-11-30T01:40:19;540.67;;;33.40;;
53521;SDS011;39398;48.382;9.802;2022-11-30T01:41:22;622.33;;;36.25;;
53521;SDS011;39398;48.382;9.802;2022-11-30T01:42:25;604.67;;;41.45;;
53521;SDS011;39398;48.382;9.802;2022-11-30T01:43:36;797.38;;;46.95;;
53521;SDS011;39398;48.382;9.802;2022-11-30T01:44:52;688.90;;;42.08;;
53521;SDS011;39398;48.382;9.802;2022-11-30T01:45:55;625.38;;;41.15;;
53521;SDS011;39398;48.382;9.802;2022-11-30T01:46:57;686.30;;;43.67;;
53521;SDS011;39398;48.382;9.802;2022-11-30T01:48:03;656.90;;;40.50;;
53521;SDS011;39398;48.382;9.802;2022-11-30T01:49:11;737.60;;;45.08;;
53521;SDS011;39398;48.382;9.802;2022-11-30T01:50:18;683.33;;;46.15;;
53521;SDS011;39398;48.382;9.802;2022-11-30T01:51:24;647.80;;;45.90;;
53521;SDS011;39398;48.382;9.802;2022-11-30T01:52:31;862.38;;;55.25;;
53521;SDS011;39398;48.382;9.802;2022-11-30T01:53:35;741.70;;;48.35;;
53521;SDS011;39398;48.382;9.802;2022-11-30T01:54:37;721.15;;;45.85;;
53521;SDS011;39398;48.382;9.802;2022-11-30T01:55:43;859.63;;;58.83;;
53521;SDS011;39398;48.382;9.802;2022-11-30T01:56:48;846.17;;;55.13;;
53521;SDS011;39398;48.382;9.802;2022-11-30T01:57:53;689.28;;;44.17;;
53521;SDS011;39398;48.382;9.802;2022-11-30T01:58:58;829.45;;;56.70;;
53521;SDS011;39398;48.382;9.802;2022-11-30T02:00:01;1089.72;;;70.70;;
53521;SDS011;39398;48.382;9.802;2022-11-30T02:01:06;949.30;;;58.45;;
53521;SDS011;39398;48.382;9.802;2022-11-30T02:02:08;758.13;;;52.25;;
53521;SDS011;39398;48.382;9.802;2022-11-30T02:03:22;547.58;;;37.30;;
53521;SDS011;39398;48.382;9.802;2022-11-30T02:04:30;721.40;;;47.15;;
53521;SDS011;39398;48.382;9.802;2022-11-30T02:05:36;683.28;;;45.60;;
53521;SDS011;39398;48.382;9.802;2022-11-30T02:06:39;879.35;;;54.20;;
53521;SDS011;39398;48.382;9.802;2022-11-30T02:07:41;888.25;;;56.72;;
53521;SDS011;39398;48.382;9.802;2022-11-30T02:08:43;807.35;;;51.63;;
53521;SDS011;39398;48.382;9.802;2022-11-30T02:09:46;860.88;;;55.22;;
53521;SDS011;39398;48.382;9.802;2022-11-30T02:10:49;972.33;;;60.70;;
53521;SDS011;39398;48.382;9.802;2022-11-30T02:11:53;974.95;;;58.88;;
53521;SDS011;39398;48.382;9.802;2022-11-30T02:14:32;798.20;;;54.25;;
53521;SDS011;39398;48.382;9.802;2022-11-30T02:15:40;693.50;;;44.35;;
53521;SDS011;39398;48.382;9.802;2022-11-30T02:16:51;687.35;;;45.38;;
53521;SDS011;39398;48.382;9.802;2022-11-30T02:18:01;572.25;;;39.00;;
53521;SDS011;39398;48.382;9.802;2022-11-30T02:19:13;713.17;;;48.85;;
53521;SDS011;39398;48.382;9.802;2022-11-30T02:20:39;526.65;;;38.20;;
53521;SDS011;39398;48.382;9.802;2022-11-30T02:21:56;566.75;;;41.65;;
53521;SDS011;39398;48.382;9.802;2022-11-30T02:23:08;572.53;;;39.03;;
53521;SDS011;39398;48.382;9.802;2022-11-30T02:25:55;487.55;;;31.92;;
53521;SDS011;39398;48.382;9.802;2022-11-30T02:27:13;514.47;;;37.05;;
53521;SDS011;39398;48.382;9.802;2022-11-30T02:30:04;388.50;;;31.23;;
53521;SDS011;39398;48.382;9.802;2022-11-30T02:31:10;654.10;;;47.70;;
53521;SDS011;39398;48.382;9.802;2022-11-30T02:32:16;589.92;;;40.63;;
53521;SDS011;39398;48.382;9.802;2022-11-30T02:33:21;519.47;;;40.63;;
53521;SDS011;39398;48.382;9.802;2022-11-30T02:34:26;615.35;;;44.70;;
53521;SDS011;39398;48.382;9.802;2022-11-30T02:35:31;401.65;;;35.22;;
53521;SDS011;39398;48.382;9.802;2022-11-30T02:36:38;164.18;;;27.58;;
53521;SDS011;39398;48.382;9.802;2022-11-30T02:37:40;125.82;;;25.85;;
53521;SDS011;39398;48.382;9.802;2022-11-30T02:38:43;148.35;;;29.35;;
53521;SDS011;39398;48.382;9.802;2022-11-30T02:39:44;150.40;;;29.35;;
53521;SDS011;39398;48.382;9.802;2022-11-30T02:40:46;183.15;;;30.60;;
53521;SDS011;39398;48.382;9.802;2022-11-30T02:41:48;158.73;;;30.33;;
53521;SDS011;39398;48.382;9.802;2022-11-30T02:42:50;210.85;;;32.28;;
53521;SDS011;39398;48.382;9.802;2022-11-30T02:43:54;406.88;;;38.15;;
53521;SDS011;39398;48.382;9.802;2022-11-30T02:44:56;778.60;;;56.90;;
53521;SDS011;39398;48.382;9.802;2022-11-30T02:46:00;480.00;;;40.03;;
53521;SDS011;39398;48.382;9.802;2022-11-30T02:47:14;276.35;;;36.13;;
53521;SDS011;39398;48.382;9.802;2022-11-30T02:48:23;574.75;;;49.03;;
53521;SDS011;39398;48.382;9.802;2022-11-30T02:49:31;732.03;;;51.05;;
53521;SDS011;39398;48.382;9.802;2022-11-30T02:50:38;785.55;;;57.40;;
53521;SDS011;39398;48.382;9.802;2022-11-30T02:51:44;276.02;;;33.63;;
53521;SDS011;39398;48.382;9.802;2022-11-30T02:52:48;215.55;;;31.88;;
53521;SDS011;39398;48.382;9.802;2022-11-30T02:53:50;131.50;;;30.17;;
53521;SDS011;39398;48.382;9.802;2022-11-30T02:54:52;162.30;;;31.95;;
53521;SDS011;39398;48.382;9.802;2022-11-30T02:55:59;270.65;;;37.08;;
53521;SDS011;39398;48.382;9.802;2022-11-30T02:57:01;191.85;;;31.77;;
53521;SDS011;39398;48.382;9.802;2022-11-30T02:58:02;145.65;;;31.95;;
53521;SDS011;39398;48.382;9.802;2022-11-30T02:59:04;162.35;;;33.70;;
53521;SDS011;39398;48.382;9.802;2022-11-30T03:00:07;189.77;;;32.78;;
53521;SDS011;39398;48.382;9.802;2022-11-30T03:01:10;237.02;;;34.78;;
53521;SDS011;39398;48.382;9.802;2022-11-30T03:02:12;230.95;;;33.85;;
53521;SDS011;39398;48.382;9.802;2022-11-30T03:03:13;165.27;;;32.20;;
53521;SDS011;39398;48.382;9.802;2022-11-30T03:04:15;164.02;;;34.90;;
53521;SDS011;39398;48.382;9.802;2022-11-30T03:05:16;125.45;;;30.40;;
53521;SDS011;39398;48.382;9.802;2022-11-30T03:06:18;126.75;;;29.65;;
53521;SDS011;39398;48.382;9.802;2022-11-30T03:07:20;104.15;;;28.15;;
53521;SDS011;39398;48.382;9.802;2022-11-30T03:08:21;117.18;;;29.38;;
53521;SDS011;39398;48.382;9.802;2022-11-30T03:09:23;112.25;;;30.08;;
53521;SDS011;39398;48.382;9.802;2022-11-30T03:10:24;118.82;;;30.02;;
53521;SDS011;39398;48.382;9.802;2022-11-30T03:11:26;110.45;;;28.88;;
53521;SDS011;39398;48.382;9.802;2022-11-30T03:12:28;110.45;;;28.83;;
53521;SDS011;39398;48.382;9.802;2022-11-30T03:13:29;105.72;;;29.92;;
53521;SDS011;39398;48.382;9.802;2022-11-30T03:14:31;91.72;;;27.33;;
53521;SDS011;39398;48.382;9.802;2022-11-30T03:15:34;92.65;;;26.17;;
53521;SDS011;39398;48.382;9.802;2022-11-30T03:16:36;100.40;;;28.58;;
53521;SDS011;39398;48.382;9.802;2022-11-30T03:17:37;99.63;;;27.85;;
53521;SDS011;39398;48.382;9.802;2022-11-30T03:18:39;92.15;;;28.17;;
53521;SDS011;39398;48.382;9.802;2022-11-30T03:19:41;96.88;;;26.70;;
53521;SDS011;39398;48.382;9.802;2022-11-30T03:20:42;92.43;;;27.80;;
53521;SDS011;39398;48.382;9.802;2022-11-30T03:21:44;95.65;;;27.17;;
53521;SDS011;39398;48.382;9.802;2022-11-30T03:22:45;99.05;;;26.83;;
53521;SDS011;39398;48.382;9.802;2022-11-30T03:23:47;111.53;;;29.17;;
53521;SDS011;39398;48.382;9.802;2022-11-30T03:24:48;105.68;;;28.33;;
53521;SDS011;39398;48.382;9.802;2022-11-30T03:25:50;123.38;;;28.30;;
53521;SDS011;39398;48.382;9.802;2022-11-30T03:26:52;96.35;;;25.70;;
53521;SDS011;39398;48.382;9.802;2022-11-30T03:27:53;113.25;;;28.90;;
53521;SDS011;39398;48.382;9.802;2022-11-30T03:30:17;81.57;;;21.80;;
53521;SDS011;39398;48.382;9.802;2022-11-30T03:31:20;102.25;;;27.80;;
53521;SDS011;39398;48.382;9.802;2022-11-30T03:32:21;101.35;;;28.95;;
53521;SDS011;39398;48.382;9.802;2022-11-30T03:33:23;108.03;;;28.17;;
53521;SDS011;39398;48.382;9.802;2022-11-30T03:34:25;100.88;;;28.27;;
53521;SDS011;39398;48.382;9.802;2022-11-30T03:35:26;97.38;;;28.20;;
53521;SDS011;39398;48.382;9.802;2022-11-30T03:36:28;103.35;;;27.55;;
53521;SDS011;39398;48.382;9.802;2022-11-30T03:37:29;121.10;;;30.20;;
53521;SDS011;39398;48.382;9.802;2022-11-30T03:38:31;121.65;;;30.35;;
53521;SDS011;39398;48.382;9.802;2022-11-30T03:39:33;125.82;;;32.25;;
53521;SDS011;39398;48.382;9.802;2022-11-30T03:40:35;139.02;;;31.80;;
53521;SDS011;39398;48.382;9.802;2022-11-30T03:41:37;107.63;;;29.67;;
53521;SDS011;39398;48.382;9.802;2022-11-30T03:42:38;158.18;;;33.83;;
53521;SDS011;39398;48.382;9.802;2022-11-30T03:43:40;336.13;;;39.92;;
53521;SDS011;39398;48.382;9.802;2022-11-30T03:44:42;254.65;;;34.90;;
53521;SDS011;39398;48.382;9.802;2022-11-30T03:45:43;645.08;;;53.47;;
53521;SDS011;39398;48.382;9.802;2022-11-30T03:46:46;143.90;;;33.75;;
53521;SDS011;39398;48.382;9.802;2022-11-30T03:47:48;163.35;;;33.83;;
53521;SDS011;39398;48.382;9.802;2022-11-30T03:48:56;139.65;;;32.80;;
53521;SDS011;39398;48.382;9.802;2022-11-30T03:49:57;134.55;;;32.45;;
53521;SDS011;39398;48.382;9.802;2022-11-30T03:50:59;136.90;;;33.55;;
53521;SDS011;39398;48.382;9.802;2022-11-30T03:52:00;168.65;;;35.55;;
53521;SDS011;39398;48.382;9.802;2022-11-30T03:53:03;161.25;;;34.90;;
53521;SDS011;39398;48.382;9.802;2022-11-30T03:54:04;145.13;;;34.33;;
53521;SDS011;39398;48.382;9.802;2022-11-30T03:55:06;102.78;;;29.52;;
53521;SDS011;39398;48.382;9.802;2022-11-30T03:56:09;112.85;;;31.15;;
53521;SDS011;39398;48.382;9.802;2022-11-30T03:57:11;112.07;;;30.33;;
53521;SDS011;39398;48.382;9.802;2022-11-30T03:58:13;113.88;;;29.73;;
53521;SDS011;39398;48.382;9.802;2022-11-30T03:59:14;115.88;;;29.27;;
53521;SDS011;39398;48.382;9.802;2022-11-30T04:00:16;129.77;;;30.60;;
53521;SDS011;39398;48.382;9.802;2022-11-30T04:01:20;115.78;;;28.90;;
53521;SDS011;39398;48.382;9.802;2022-11-30T04:02:23;101.85;;;28.30;;
53521;SDS011;39398;48.382;9.802;2022-11-30T04:03:25;113.65;;;30.48;;
53521;SDS011;39398;48.382;9.802;2022-11-30T04:04:26;103.97;;;29.08;;
53521;SDS011;39398;48.382;9.802;2022-11-30T04:05:28;96.22;;;29.10;;
53521;SDS011;39398;48.382;9.802;2022-11-30T04:06:30;108.15;;;27.80;;
53521;SDS011;39398;48.382;9.802;2022-11-30T04:07:31;120.38;;;30.35;;
53521;SDS011;39398;48.382;9.802;2022-11-30T04:08:33;95.28;;;26.73;;
53521;SDS011;39398;48.382;9.802;2022-11-30T04:09:35;98.65;;;28.90;;
53521;SDS011;39398;48.382;9.802;2022-11-30T04:10:37;92.13;;;28.17;;
53521;SDS011;39398;48.382;9.802;2022-11-30T04:11:38;79.00;;;26.80;;
53521;SDS011;39398;48.382;9.802;2022-11-30T04:12:40;85.82;;;26.15;;
53521;SDS011;39398;48.382;9.802;2022-11-30T04:13:41;91.93;;;27.95;;
53521;SDS011;39398;48.382;9.802;2022-11-30T04:14:43;86.25;;;27.33;;
53521;SDS011;39398;48.382;9.802;2022-11-30T04:15:45;84.85;;;27.85;;
53521;SDS011;39398;48.382;9.802;2022-11-30T04:16:48;87.25;;;27.02;;
53521;SDS011;39398;48.382;9.802;2022-11-30T04:17:51;110.18;;;29.45;;
53521;SDS011;39398;48.382;9.802;2022-11-30T04:18:52;92.80;;;25.65;;
53521;SDS011;39398;48.382;9.802;2022-11-30T04:19:54;91.75;;;27.60;;
53521;SDS011;39398;48.382;9.802;2022-11-30T04:20:56;85.25;;;26.40;;
53521;SDS011;39398;48.382;9.802;2022-11-30T04:21:58;73.43;;;25.55;;
53521;SDS011;39398;48.382;9.802;2022-11-30T04:23:00;77.45;;;26.08;;
53521;SDS011;39398;48.382;9.802;2022-11-30T04:24:01;84.05;;;27.73;;
53521;SDS011;39398;48.382;9.802;2022-11-30T04:25:04;75.18;;;26.40;;
53521;SDS011;39398;48.382;9.802;2022-11-30T04:26:07;94.00;;;27.85;;
53521;SDS011;39398;48.382;9.802;2022-11-30T04:27:10;92.68;;;28.45;;
53521;SDS011;39398;48.382;9.802;2022-11-30T04:28:12;107.85;;;27.85;;
53521;SDS011;39398;48.382;9.802;2022-11-30T04:29:15;79.95;;;26.70;;
53521;SDS011;39398;48.382;9.802;2022-11-30T04:30:16;90.78;;;27.35;;
53521;SDS011;39398;48.382;9.802;2022-11-30T04:31:18;79.15;;;26.95;;
53521;SDS011;39398;48.382;9.802;2022-11-30T04:32:19;87.28;;;27.83;;
53521;SDS011;39398;48.382;9.802;2022-11-30T04:33:22;96.85;;;27.30;;
53521;SDS011;39398;48.382;9.802;2022-11-30T04:34:24;99.85;;;28.55;;
53521;SDS011;39398;48.382;9.802;2022-11-30T04:35:25;88.60;;;26.33;;
53521;SDS011;39398;48.382;9.802;2022-11-30T04:36:27;88.00;;;27.05;;
53521;SDS011;39398;48.382;9.802;2022-11-30T04:37:28;97.60;;;26.55;;
53521;SDS011;39398;48.382;9.802;2022-11-30T04:38:30;97.47;;;27.98;;
53521;SDS011;39398;48.382;9.802;2022-11-30T04:39:32;92.10;;;27.42;;
53521;SDS011;39398;48.382;9.802;2022-11-30T04:40:37;87.63;;;26.55;;
53521;SDS011;39398;48.382;9.802;2022-11-30T04:41:39;78.93;;;25.08;;
53521;SDS011;39398;48.382;9.802;2022-11-30T04:42:41;79.35;;;26.42;;
53521;SDS011;39398;48.382;9.802;2022-11-30T04:43:43;76.53;;;26.73;;
53521;SDS011;39398;48.382;9.802;2022-11-30T04:44:44;77.00;;;25.50;;
53521;SDS011;39398;48.382;9.802;2022-11-30T04:45:47;80.95;;;26.85;;
53521;SDS011;39398;48.382;9.802;2022-11-30T04:46:48;83.45;;;25.10;;
53521;SDS011;39398;48.382;9.802;2022-11-30T04:47:50;92.80;;;25.52;;
53521;SDS011;39398;48.382;9.802;2022-11-30T04:48:52;97.47;;;26.63;;
53521;SDS011;39398;48.382;9.802;2022-11-30T04:49:54;97.03;;;25.88;;
53521;SDS011;39398;48.382;9.802;2022-11-30T04:50:58;89.88;;;26.08;;
53521;SDS011;39398;48.382;9.802;2022-11-30T04:52:01;92.25;;;26.77;;
53521;SDS011;39398;48.382;9.802;2022-11-30T04:53:02;88.43;;;26.58;;
53521;SDS011;39398;48.382;9.802;2022-11-30T04:54:04;113.55;;;28.23;;
53521;SDS011;39398;48.382;9.802;2022-11-30T04:55:06;99.93;;;26.65;;
53521;SDS011;39398;48.382;9.802;2022-11-30T04:56:08;115.57;;;28.02;;
53521;SDS011;39398;48.382;9.802;2022-11-30T04:57:11;111.65;;;26.83;;
53521;SDS011;39398;48.382;9.802;2022-11-30T04:58:12;134.73;;;28.58;;
53521;SDS011;39398;48.382;9.802;2022-11-30T04:59:14;143.38;;;28.58;;
53521;SDS011;39398;48.382;9.802;2022-11-30T05:00:16;160.60;;;28.23;;
53521;SDS011;39398;48.382;9.802;2022-11-30T05:01:19;131.55;;;26.42;;
53521;SDS011;39398;48.382;9.802;2022-11-30T05:02:20;197.90;;;29.38;;
53521;SDS011;39398;48.382;9.802;2022-11-30T05:03:22;152.48;;;29.02;;
53521;SDS011;39398;48.382;9.802;2022-11-30T05:04:25;247.05;;;30.60;;
53521;SDS011;39398;48.382;9.802;2022-11-30T05:05:26;260.55;;;32.67;;
53521;SDS011;39398;48.382;9.802;2022-11-30T05:06:28;362.20;;;34.72;;
53521;SDS011;39398;48.382;9.802;2022-11-30T05:07:29;476.42;;;39.35;;
53521;SDS011;39398;48.382;9.802;2022-11-30T05:08:31;267.63;;;31.35;;
53521;SDS011;39398;48.382;9.802;2022-11-30T05:09:33;416.08;;;38.55;;
53521;SDS011;39398;48.382;9.802;2022-11-30T05:10:34;342.13;;;36.47;;
53521;SDS011;39398;48.382;9.802;2022-11-30T05:11:36;272.17;;;34.53;;
53521;SDS011;39398;48.382;9.802;2022-11-30T05:12:37;142.63;;;31.40;;
53521;SDS011;39398;48.382;9.802;2022-11-30T05:13:39;158.65;;;30.60;;
53521;SDS011;39398;48.382;9.802;2022-11-30T05:14:40;162.07;;;29.95;;
53521;SDS011;39398;48.382;9.802;2022-11-30T05:15:42;167.30;;;31.02;;
53521;SDS011;39398;48.382;9.802;2022-11-30T05:16:45;198.40;;;32.53;;
53521;SDS011;39398;48.382;9.802;2022-11-30T05:17:47;208.23;;;32.38;;
53521;SDS011;39398;48.382;9.802;2022-11-30T05:18:49;210.73;;;31.60;;
53521;SDS011;39398;48.382;9.802;2022-11-30T05:19:52;209.48;;;31.33;;
53521;SDS011;39398;48.382;9.802;2022-11-30T05:20:54;155.18;;;28.48;;
53521;SDS011;39398;48.382;9.802;2022-11-30T05:21:55;137.25;;;26.25;;
53521;SDS011;39398;48.382;9.802;2022-11-30T05:22:57;144.18;;;29.15;;
53521;SDS011;39398;48.382;9.802;2022-11-30T05:23:58;308.00;;;34.17;;
53521;SDS011;39398;48.382;9.802;2022-11-30T05:25:00;361.85;;;36.03;;
53521;SDS011;39398;48.382;9.802;2022-11-30T05:26:02;294.98;;;34.80;;
53521;SDS011;39398;48.382;9.802;2022-11-30T05:27:06;179.57;;;30.67;;
53521;SDS011;39398;48.382;9.802;2022-11-30T05:28:19;178.35;;;30.38;;
53521;SDS011;39398;48.382;9.802;2022-11-30T05:29:21;213.88;;;32.25;;
53521;SDS011;39398;48.382;9.802;2022-11-30T05:30:22;178.88;;;29.02;;
53521;SDS011;39398;48.382;9.802;2022-11-30T05:31:24;207.50;;;31.08;;
53521;SDS011;39398;48.382;9.802;2022-11-30T05:32:25;193.63;;;30.98;;
53521;SDS011;39398;48.382;9.802;2022-11-30T05:33:27;153.98;;;31.13;;
53521;SDS011;39398;48.382;9.802;2022-11-30T05:34:28;135.60;;;28.08;;
53521;SDS011;39398;48.382;9.802;2022-11-30T05:35:31;168.60;;;28.80;;
53521;SDS011;39398;48.382;9.802;2022-11-30T05:36:33;184.63;;;28.35;;
53521;SDS011;39398;48.382;9.802;2022-11-30T05:37:34;248.15;;;33.13;;
53521;SDS011;39398;48.382;9.802;2022-11-30T05:38:36;208.40;;;32.20;;
53521;SDS011;39398;48.382;9.802;2022-11-30T05:39:38;301.65;;;34.88;;
53521;SDS011;39398;48.382;9.802;2022-11-30T05:40:39;166.20;;;28.60;;
53521;SDS011;39398;48.382;9.802;2022-11-30T05:41:41;314.10;;;33.25;;
53521;SDS011;39398;48.382;9.802;2022-11-30T05:42:42;449.38;;;38.30;;
53521;SDS011;39398;48.382;9.802;2022-11-30T05:43:44;519.83;;;39.90;;
53521;SDS011;39398;48.382;9.802;2022-11-30T05:44:45;424.08;;;35.40;;
53521;SDS011;39398;48.382;9.802;2022-11-30T05:45:47;832.97;;;57.60;;
53521;SDS011;39398;48.382;9.802;2022-11-30T05:46:49;730.17;;;51.10;;
53521;SDS011;39398;48.382;9.802;2022-11-30T05:47:50;473.05;;;38.00;;
53521;SDS011;39398;48.382;9.802;2022-11-30T05:48:52;225.38;;;32.08;;
53521;SDS011;39398;48.382;9.802;2022-11-30T05:49:54;162.50;;;30.13;;
53521;SDS011;39398;48.382;9.802;2022-11-30T05:50:58;550.30;;;46.50;;
53521;SDS011;39398;48.382;9.802;2022-11-30T05:52:04;532.08;;;44.35;;
53521;SDS011;39398;48.382;9.802;2022-11-30T05:53:06;790.20;;;54.83;;
53521;SDS011;39398;48.382;9.802;2022-11-30T05:54:08;820.22;;;53.95;;
53521;SDS011;39398;48.382;9.802;2022-11-30T05:55:09;740.13;;;52.05;;
53521;SDS011;39398;48.382;9.802;2022-11-30T05:56:11;776.45;;;54.10;;
53521;SDS011;39398;48.382;9.802;2022-11-30T05:57:15;915.00;;;60.63;;
53521;SDS011;39398;48.382;9.802;2022-11-30T05:58:16;764.67;;;53.17;;
53521;SDS011;39398;48.382;9.802;2022-11-30T05:59:18;482.90;;;38.67;;
53521;SDS011;39398;48.382;9.802;2022-11-30T06:00:25;607.88;;;45.65;;
53521;SDS011;39398;48.382;9.802;2022-11-30T06:01:27;236.15;;;34.35;;
53521;SDS011;39398;48.382;9.802;2022-11-30T06:02:29;408.55;;;38.88;;
53521;SDS011;39398;48.382;9.802;2022-11-30T06:03:31;235.10;;;34.47;;
53521;SDS011;39398;48.382;9.802;2022-11-30T06:04:34;154.95;;;31.13;;
53521;SDS011;39398;48.382;9.802;2022-11-30T06:05:36;176.35;;;29.27;;
53521;SDS011;39398;48.382;9.802;2022-11-30T06:06:39;199.43;;;29.10;;
53521;SDS011;39398;48.382;9.802;2022-11-30T06:07:40;180.00;;;28.98;;
53521;SDS011;39398;48.382;9.802;2022-11-30T06:08:42;188.07;;;28.90;;
53521;SDS011;39398;48.382;9.802;2022-11-30T06:09:44;209.70;;;29.02;;